Time;durP1;ratioP1;P1;durP2;ratioP2;P2;SDS_P1;SDS_P2;PMS_P1;PMS_P2;Temp;Humidity;BMP_temperature;BMP_pressure;BME280_temperature;BME280_humidity;BME280_pressure;Samples;Min_cycle;Max_cycle;Signal;HPM_P1;HPM_P2
2022/06/30 00:00:55;;;;;;;;;9.20;9.20;;;;;27.06;38.35;98836.78;5074072;28;8821;-76
2022/06/30 00:03:24;;;;;;;;;12.40;11.00;;;;;27.03;38.46;98827.16;5112574;28;8937;-76
2022/06/30 00:05:54;;;;;;;;;12.60;12.60;;;;;26.91;38.77;98838.00;5096675;28;8824;-76
2022/06/30 00:08:23;;;;;;;;;10.00;10.00;;;;;26.87;39.02;98832.03;5108752;28;9694;-75
2022/06/30 00:10:51;;;;;;;;;11.20;10.60;;;;;26.85;39.07;98833.97;5094024;28;8864;-76
2022/06/30 00:13:20;;;;;;;;;12.00;11.20;;;;;26.87;38.55;98828.50;5093755;28;8860;-73
2022/06/30 00:15:49;;;;;;;;;13.00;12.00;;;;;26.87;38.79;98829.34;5088404;28;9613;-75
2022/06/30 00:18:18;;;;;;;;;11.00;10.60;;;;;26.90;38.67;98829.13;5088294;28;8952;-77
2022/06/30 00:20:47;;;;;;;;;9.00;9.00;;;;;26.92;38.56;98834.34;5090607;28;8852;-77
2022/06/30 00:23:16;;;;;;;;;11.60;10.60;;;;;26.88;38.85;98831.06;5095455;28;9623;-76
2022/06/30 00:25:45;;;;;;;;;11.20;11.00;;;;;26.90;38.53;98834.47;5087575;28;8855;-77
2022/06/30 00:28:15;;;;;;;;;9.40;8.20;;;;;26.90;38.59;98833.59;5089466;28;8862;-78
2022/06/30 00:30:43;;;;;;;;;14.60;13.20;;;;;26.91;38.75;98838.84;5053817;28;8843;-76
2022/06/30 00:33:12;;;;;;;;;10.80;10.80;;;;;26.90;38.58;98830.94;5088051;28;8832;-74
2022/06/30 00:35:40;;;;;;;;;12.40;12.00;;;;;26.87;38.76;98828.50;5087485;28;8840;-75
2022/06/30 00:38:09;;;;;;;;;12.40;12.40;;;;;26.88;39.02;98832.88;5094686;28;8849;-75
2022/06/30 00:40:40;;;;;;;;;12.20;11.60;;;;;26.88;38.57;98831.06;5109472;28;8930;-75
2022/06/30 00:43:09;;;;;;;;;9.40;9.20;;;;;26.88;38.87;98824.84;5109290;28;8841;-77
2022/06/30 00:45:41;;;;;;;;;10.80;10.80;;;;;26.82;38.93;98828.88;5090625;28;8937;-74
2022/06/30 00:48:10;;;;;;;;;13.80;10.60;;;;;26.81;38.58;98822.66;5056735;28;8872;-76
2022/06/30 00:50:39;;;;;;;;;12.00;10.20;;;;;26.86;38.69;98822.28;5108115;28;8826;-76
2022/06/30 00:53:10;;;;;;;;;11.60;11.60;;;;;26.82;38.58;98821.72;5106061;28;8869;-76
2022/06/30 00:55:40;;;;;;;;;14.00;12.40;;;;;26.81;38.58;98832.53;5085942;28;8849;-76
2022/06/30 00:58:09;;;;;;;;;10.40;10.40;;;;;26.79;38.87;98823.78;5107942;28;8864;-76
2022/06/30 01:00:40;;;;;;;;;8.80;8.80;;;;;26.81;38.54;98824.50;5105038;28;8891;-76
2022/06/30 01:03:10;;;;;;;;;10.80;10.80;;;;;26.82;38.41;98821.72;5105586;28;9586;-78
2022/06/30 01:05:39;;;;;;;;;9.20;9.20;;;;;26.78;38.44;98822.91;5107451;28;8840;-76
2022/06/30 01:08:07;;;;;;;;;10.20;9.20;;;;;26.77;38.65;98815.88;5107307;28;8853;-76
2022/06/30 01:13:25;;;;;;;;;9.20;9.20;;;;;26.72;38.79;98818.03;5104126;28;8833;-76
2022/06/30 01:15:53;;;;;;;;;11.60;10.80;;;;;26.71;38.63;98813.69;5104902;28;8895;-76
2022/06/30 01:18:22;;;;;;;;;6.80;6.80;;;;;26.67;38.70;98809.53;5123224;28;8868;-77
2022/06/30 01:20:50;;;;;;;;;11.40;11.40;;;;;26.63;38.88;98798.25;5105815;28;8851;-79
2022/06/30 01:23:20;;;;;;;;;13.20;12.60;;;;;26.66;38.90;98797.16;5106027;28;8852;-77
2022/06/30 01:25:49;;;;;;;;;10.00;10.00;;;;;26.62;38.58;98803.72;5105546;28;8837;-75
2022/06/30 01:28:17;;;;;;;;;11.20;10.60;;;;;26.65;38.19;98795.44;5104581;28;8849;-78
2022/06/30 01:30:46;;;;;;;;;10.60;10.40;;;;;26.68;38.26;98805.91;5102562;28;8869;-75
2022/06/30 01:33:15;;;;;;;;;11.00;10.00;;;;;26.73;37.86;98803.72;5107114;28;9599;-78
2022/06/30 01:35:43;;;;;;;;;10.80;10.60;;;;;26.78;37.74;98806.00;5088038;28;8860;-76
2022/06/30 01:38:12;;;;;;;;;10.80;10.80;;;;;26.78;38.29;98806.00;5051843;28;8865;-76
2022/06/30 01:40:42;;;;;;;;;10.20;10.20;;;;;26.83;37.68;98810.03;5104569;28;8900;-79
2022/06/30 01:43:13;;;;;;;;;13.00;12.00;;;;;26.83;37.95;98810.03;5087504;28;8867;-75
2022/06/30 01:45:42;;;;;;;;;10.40;10.40;;;;;26.81;37.88;98806.63;5107502;28;8952;-78
2022/06/30 01:48:11;;;;;;;;;10.80;10.00;;;;;26.85;37.44;98809.91;5107430;28;9507;-75
2022/06/30 01:50:40;;;;;;;;;10.00;10.00;;;;;26.90;37.32;98804.19;5089901;28;8856;-77
2022/06/30 01:53:08;;;;;;;;;10.00;9.00;;;;;26.87;37.62;98810.63;5106196;28;9741;-76
2022/06/30 01:55:37;;;;;;;;;9.00;9.00;;;;;26.89;37.41;98808.69;5108003;28;8857;-76
2022/06/30 01:58:07;;;;;;;;;12.00;11.20;;;;;26.90;37.43;98814.88;5106359;28;8849;-79
2022/06/30 02:00:35;;;;;;;;;10.40;10.40;;;;;26.90;37.11;98820.22;5070421;28;8848;-74
2022/06/30 02:03:04;;;;;;;;;9.00;9.00;;;;;26.88;37.06;98812.34;5092981;28;8869;-77
2022/06/30 02:05:33;;;;;;;;;10.00;10.00;;;;;26.92;36.35;98820.94;5086285;28;8930;-75
2022/06/30 02:08:01;;;;;;;;;11.20;11.00;;;;;26.89;36.43;98818.53;5118570;28;8849;-79
2022/06/30 02:10:29;;;;;;;;;8.00;8.00;;;;;26.90;36.45;98817.56;5115929;28;9006;-77
2022/06/30 02:12:58;;;;;;;;;10.00;10.00;;;;;26.87;36.49;98817.81;5113526;28;8865;-75
2022/06/30 02:15:33;;;;;;;;;8.40;8.20;;;;;26.81;36.89;98820.00;5116328;28;8877;-77
2022/06/30 02:18:04;;;;;;;;;9.00;9.00;;;;;26.82;36.87;98818.16;5118061;28;9641;-76
2022/06/30 02:20:33;;;;;;;;;9.60;9.60;;;;;26.82;36.79;98815.50;5097432;28;8839;-75
2022/06/30 02:23:04;;;;;;;;;10.00;10.00;;;;;26.83;36.88;98822.56;5081062;28;8992;-78
2022/06/30 02:25:34;;;;;;;;;10.80;9.80;;;;;26.82;36.97;98815.50;5094975;28;8844;-77
2022/06/30 02:28:05;;;;;;;;;9.40;9.40;;;;;26.87;36.75;98824.00;5097741;28;8920;-77
2022/06/30 02:30:35;;;;;;;;;10.00;9.00;;;;;26.89;36.91;98815.88;5080373;28;8852;-76
2022/06/30 02:33:04;;;;;;;;;10.80;10.20;;;;;26.84;37.44;98816.22;5097925;28;8958;-75
2022/06/30 02:35:33;;;;;;;;;8.20;8.20;;;;;26.84;37.35;98825.13;5097640;28;9736;-75
2022/06/30 02:38:09;;;;;;;;;9.00;9.00;;;;;26.86;37.63;98816.94;5099452;28;8843;-76
2022/06/30 02:40:38;;;;;;;;;9.60;9.20;;;;;26.84;37.31;98825.13;5095858;28;8924;-75
2022/06/30 02:43:07;;;;;;;;;11.00;10.00;;;;;26.81;37.47;98828.03;5093378;28;9064;-76
2022/06/30 02:45:36;;;;;;;;;9.00;9.00;;;;;26.83;37.93;98823.41;5096525;28;9638;-75
2022/06/30 02:48:05;;;;;;;;;9.20;9.20;;;;;26.84;37.88;98825.13;5111087;28;8847;-76
2022/06/30 02:50:34;;;;;;;;;9.80;9.80;;;;;26.76;37.78;98819.50;5096894;28;8863;-77
2022/06/30 02:53:02;;;;;;;;;9.20;8.60;;;;;26.72;38.15;98823.41;5079502;28;8967;-75
2022/06/30 02:55:31;;;;;;;;;10.40;10.00;;;;;26.71;37.93;98826.19;5114101;28;8855;-75
2022/06/30 02:57:59;;;;;;;;;10.20;8.80;;;;;26.64;38.44;98826.69;5113463;28;8951;-77
2022/06/30 03:00:28;;;;;;;;;8.60;8.00;;;;;26.66;38.14;98831.91;5093527;28;8877;-75
2022/06/30 03:02:58;;;;;;;;;8.80;8.80;;;;;26.67;38.48;98830.94;5095233;28;8983;-75
2022/06/30 03:05:27;;;;;;;;;9.40;9.00;;;;;26.68;38.27;98829.97;5097446;27;8855;-74
2022/06/30 03:07:55;;;;;;;;;9.20;9.00;;;;;26.72;38.33;98833.25;5135489;27;8948;-75
2022/06/30 03:10:24;;;;;;;;;8.60;8.60;;;;;26.67;38.00;98832.75;5131952;27;8880;-77
2022/06/30 03:12:53;;;;;;;;;9.40;9.40;;;;;26.69;38.20;98833.47;5114625;27;8817;-78
2022/06/30 03:15:22;;;;;;;;;8.20;8.20;;;;;26.68;38.03;98840.66;5129058;27;8837;-74
2022/06/30 03:17:50;;;;;;;;;8.60;8.20;;;;;26.68;37.92;98843.34;5098925;28;8875;-75
2022/06/30 03:20:20;;;;;;;;;12.80;12.00;;;;;26.70;38.05;98837.88;5091174;28;8878;-77
2022/06/30 03:22:49;;;;;;;;;10.20;9.20;;;;;26.74;37.79;98837.50;5094757;27;8839;-75
2022/06/30 03:25:17;;;;;;;;;9.00;8.00;;;;;26.77;37.58;98839.94;5091229;28;8863;-77
2022/06/30 03:27:46;;;;;;;;;9.80;8.60;;;;;26.77;37.56;98839.09;5091064;28;8839;-74
2022/06/30 03:30:15;;;;;;;;;7.60;7.60;;;;;26.79;37.61;98839.84;5091253;28;8910;-76
2022/06/30 03:32:43;;;;;;;;;11.40;10.00;;;;;26.80;37.83;98831.66;5055564;28;8949;-75
2022/06/30 03:35:12;;;;;;;;;10.60;10.60;;;;;26.80;38.12;98834.34;5089063;28;8864;-77
2022/06/30 03:37:42;;;;;;;;;11.40;11.00;;;;;26.81;38.20;98833.38;5089228;28;8862;-75
2022/06/30 03:40:12;;;;;;;;;10.00;10.00;;;;;26.86;37.91;98830.31;5089754;28;8864;-75
2022/06/30 03:42:41;;;;;;;;;11.00;11.00;;;;;26.87;37.80;98828.50;5055382;28;9594;-76
2022/06/30 03:45:10;;;;;;;;;12.00;10.20;;;;;26.92;38.04;98845.91;5104837;28;8992;-76
2022/06/30 03:47:38;;;;;;;;;9.00;7.80;;;;;26.93;37.62;98842.25;5109580;28;8871;-76
2022/06/30 03:50:09;;;;;;;;;8.60;8.60;;;;;26.97;37.97;98843.69;5110504;28;8876;-76
2022/06/30 03:52:37;;;;;;;;;9.00;9.00;;;;;27.01;37.49;98844.31;5110623;28;8920;-76
2022/06/30 03:55:08;;;;;;;;;7.40;7.00;;;;;27.01;37.91;98842.50;5110460;28;8844;-77
2022/06/30 03:57:37;;;;;;;;;9.80;9.80;;;;;27.01;37.62;98847.84;5104782;28;8843;-75
2022/06/30 04:00:07;;;;;;;;;8.60;8.60;;;;;27.05;37.63;98848.44;5088544;28;8867;-75
2022/06/30 04:02:35;;;;;;;;;8.40;8.40;;;;;27.05;37.63;98845.75;5054272;28;8851;-74
2022/06/30 04:05:05;;;;;;;;;9.40;9.40;;;;;27.06;37.33;98839.44;5090010;28;8848;-77
2022/06/30 04:07:39;;;;;;;;;12.00;11.00;;;;;27.08;37.63;98844.69;5054493;28;8917;-74
2022/06/30 04:10:11;;;;;;;;;14.60;12.40;;;;;27.14;37.17;98846.84;5089400;28;8847;-76
2022/06/30 04:12:40;;;;;;;;;7.60;7.20;;;;;27.25;37.47;98844.19;5071249;27;8847;-79
2022/06/30 04:15:10;;;;;;;;;8.60;8.60;;;;;27.30;37.02;98849.19;5088494;28;8892;-76
2022/06/30 04:17:39;;;;;;;;;9.00;9.00;;;;;27.28;37.29;98852.00;5070825;28;8828;-77
2022/06/30 04:20:15;;;;;;;;;7.60;7.40;;;;;27.35;37.08;98863.91;5070707;28;8921;-76
2022/06/30 04:22:47;;;;;;;;;12.40;12.40;;;;;27.43;36.72;98855.25;5096936;28;8829;-76
2022/06/30 04:25:17;;;;;;;;;12.40;11.00;;;;;27.57;36.51;98851.44;5106896;28;8901;-74
2022/06/30 04:27:47;;;;;;;;;8.20;8.20;;;;;27.65;36.09;98861.53;5072571;28;8906;-74
2022/06/30 04:32:37;;;;;;;;;10.80;9.80;;;;;27.76;36.31;98854.28;5103237;28;8864;-77
2022/06/30 04:33:05;;;;;;;;;9.80;8.20;;;;;27.93;35.88;98862.78;5107152;28;8853;-76
2022/06/30 04:35:34;;;;;;;;;9.60;9.00;;;;;28.03;35.73;98862.88;5086755;28;9605;-76
2022/06/30 04:38:04;;;;;;;;;9.60;9.40;;;;;28.08;35.59;98860.66;5106344;28;8865;-74
2022/06/30 04:43:21;;;;;;;;;8.60;8.60;;;;;28.28;35.28;98867.00;5106188;28;8851;-77
2022/06/30 04:45:50;;;;;;;;;10.40;10.40;;;;;28.35;35.22;98868.19;5102702;28;8845;-77
2022/06/30 04:48:18;;;;;;;;;9.20;9.00;;;;;28.37;35.28;98866.22;5106189;28;8849;-78
2022/06/30 04:50:47;;;;;;;;;7.80;7.80;;;;;28.47;35.16;98874.31;5089256;28;8829;-78
2022/06/30 04:53:15;;;;;;;;;10.40;10.20;;;;;28.53;35.09;98869.34;5068674;28;8865;-76
2022/06/30 04:55:45;;;;;;;;;10.00;8.80;;;;;28.63;35.01;98876.59;5106386;28;8845;-77
2022/06/30 04:58:14;;;;;;;;;9.00;9.00;;;;;28.75;35.02;98867.47;5101212;28;8849;-76
2022/06/30 05:00:43;;;;;;;;;12.20;9.60;;;;;28.83;34.83;98875.72;5107017;28;8845;-73
2022/06/30 05:03:12;;;;;;;;;8.80;8.20;;;;;28.91;34.66;98878.56;5087621;28;8856;-77
2022/06/30 05:05:40;;;;;;;;;9.80;9.80;;;;;28.99;34.68;98880.59;5106270;28;8983;-76
2022/06/30 05:08:09;;;;;;;;;7.20;6.60;;;;;29.14;34.53;98884.63;5088868;28;8880;-79
2022/06/30 05:10:38;;;;;;;;;8.00;8.00;;;;;29.18;34.74;98889.75;5106154;28;8887;-75
2022/06/30 05:13:08;;;;;;;;;8.00;7.60;;;;;29.21;34.59;98894.84;5120485;27;8958;-76
2022/06/30 05:15:37;;;;;;;;;7.40;7.40;;;;;29.21;34.51;98897.53;5086932;28;8950;-79
2022/06/30 05:18:05;;;;;;;;;8.40;8.40;;;;;29.32;34.36;98903.66;5107821;28;8852;-76
2022/06/30 05:20:34;;;;;;;;;7.60;7.60;;;;;29.39;34.29;98906.63;5085269;28;8858;-75
2022/06/30 05:23:03;;;;;;;;;8.00;8.00;;;;;29.49;34.36;98895.91;5064467;28;8835;-76
2022/06/30 05:28:21;;;;;;;;;9.40;9.40;;;;;29.71;34.29;98911.78;5068167;28;8868;-76
2022/06/30 05:30:50;;;;;;;;;10.00;10.00;;;;;29.78;34.00;98914.81;5050531;28;8976;-75
2022/06/30 05:33:19;;;;;;;;;9.40;9.40;;;;;29.90;34.15;98916.38;5066756;28;8950;-77
2022/06/30 05:35:48;;;;;;;;;7.80;7.80;;;;;29.97;34.15;98915.84;5065532;28;8853;-77
2022/06/30 05:38:17;;;;;;;;;5.80;5.80;;;;;30.15;34.07;98921.34;5083109;28;8849;-78
2022/06/30 05:40:46;;;;;;;;;9.80;9.80;;;;;30.26;33.89;98921.22;5087474;28;8842;-77
2022/06/30 05:43:16;;;;;;;;;9.20;9.00;;;;;30.38;33.41;98925.50;5072035;28;8834;-80
2022/06/30 05:45:46;;;;;;;;;8.00;7.80;;;;;30.57;33.37;98926.44;5068053;28;8868;-77
2022/06/30 05:48:15;;;;;;;;;9.80;9.80;;;;;30.74;33.60;98927.56;5074439;28;8850;-79
2022/06/30 05:50:43;;;;;;;;;9.00;8.40;;;;;30.82;33.38;98935.78;5085489;28;8863;-79
2022/06/30 05:53:12;;;;;;;;;10.80;10.00;;;;;30.97;32.72;98937.03;5073517;28;8948;-78
2022/06/30 05:55:41;;;;;;;;;11.80;10.60;;;;;31.17;32.72;98943.19;5123866;27;8940;-81
2022/06/30 05:58:12;;;;;;;;;9.40;8.40;;;;;31.26;32.71;98950.38;5107108;28;8848;-79
2022/06/30 06:00:41;;;;;;;;;10.80;10.80;;;;;31.37;32.61;98949.38;5090227;28;8986;-79
2022/06/30 06:03:11;;;;;;;;;11.00;10.20;;;;;31.54;32.83;98950.44;5091055;28;8859;-77
2022/06/30 06:05:39;;;;;;;;;11.20;11.20;;;;;31.63;32.34;98954.94;5054937;28;9022;-76
2022/06/30 06:08:10;;;;;;;;;14.00;13.20;;;;;31.77;32.32;98950.88;5070634;28;8864;-77
2022/06/30 06:10:38;;;;;;;;;11.80;11.80;;;;;31.98;32.33;98960.53;5100702;27;8869;-81
2022/06/30 06:13:09;;;;;;;;;11.20;11.20;;;;;32.08;32.04;98960.50;5108878;28;8883;-70
2022/06/30 06:15:38;;;;;;;;;15.00;14.60;;;;;32.31;32.03;98958.19;5107553;28;8852;-69
2022/06/30 06:18:07;;;;;;;;;11.40;10.40;;;;;32.33;31.59;98964.31;5109867;28;8868;-74
2022/06/30 06:20:37;;;;;;;;;10.60;10.60;;;;;32.44;31.48;98964.06;5111287;28;8855;-69
2022/06/30 06:23:05;;;;;;;;;17.50;16.00;;;;;32.34;31.84;98968.69;5109939;28;8853;-69
2022/06/30 06:25:34;;;;;;;;;13.00;12.40;;;;;32.36;31.68;98972.91;5094647;27;8878;-72
2022/06/30 06:30:51;;;;;;;;;12.40;12.00;;;;;32.73;31.79;98973.78;5082010;28;9637;-77
2022/06/30 06:33:19;;;;;;;;;16.25;16.00;;;;;32.72;31.60;98977.47;5105961;28;8840;-79
2022/06/30 06:35:49;;;;;;;;;11.20;11.20;;;;;32.73;31.27;98976.50;5080022;28;8881;-77
2022/06/30 06:38:18;;;;;;;;;13.75;13.75;;;;;32.56;31.46;98976.31;5109154;28;8967;-79
2022/06/30 06:40:46;;;;;;;;;10.60;10.60;;;;;32.66;31.61;98972.72;5111226;28;8829;-77
2022/06/30 06:43:15;;;;;;;;;13.25;13.25;;;;;32.38;32.14;98970.06;5077011;28;8857;-78
2022/06/30 06:45:43;;;;;;;;;12.75;12.00;;;;;32.30;32.01;98983.50;5102665;28;8848;-78
2022/06/30 06:48:12;;;;;;;;;13.40;13.40;;;;;32.50;32.27;98976.94;5103977;28;8864;-78
2022/06/30 06:50:41;;;;;;;;;11.80;11.80;;;;;32.61;32.46;98971.34;5091633;28;8871;-78
2022/06/30 06:53:11;;;;;;;;;16.75;14.00;;;;;32.57;32.91;98975.34;5076124;28;8843;-77
2022/06/30 06:55:40;;;;;;;;;16.00;16.00;;;;;32.61;32.49;98982.13;5074974;28;8851;-76
2022/06/30 06:58:08;;;;;;;;;13.00;12.00;;;;;32.56;32.82;98983.56;5107920;28;8914;-75
2022/06/30 07:00:37;;;;;;;;;16.40;12.60;;;;;32.55;33.15;98990.84;5108278;28;9585;-78
2022/06/30 07:03:06;;;;;;;;;12.00;12.00;;;;;32.68;33.12;98990.44;5108485;28;8951;-76
2022/06/30 07:05:34;;;;;;;;;16.75;16.75;;;;;32.86;33.04;98987.72;5108650;28;8864;-77
2022/06/30 07:08:03;;;;;;;;;16.75;15.50;;;;;32.93;33.19;98988.81;5090605;28;8869;-77
2022/06/30 07:10:33;;;;;;;;;15.50;14.75;;;;;33.03;33.50;98989.53;5071354;28;8860;-79
2022/06/30 07:13:02;;;;;;;;;19.00;16.75;;;;;33.33;33.30;99000.06;5056274;28;8888;-77
2022/06/30 07:15:30;;;;;;;;;22.75;21.00;;;;;33.10;33.50;98997.88;5090600;28;8997;-76
2022/06/30 07:17:59;;;;;;;;;16.50;16.25;;;;;32.86;34.20;98989.59;5072491;28;8892;-81
2022/06/30 07:20:28;;;;;;;;;18.25;17.25;;;;;33.06;33.86;99004.56;5071687;28;8976;-77
2022/06/30 07:22:56;;;;;;;;;17.00;16.25;;;;;33.20;33.92;99000.50;5088898;28;8954;-76
2022/06/30 07:25:46;;;;;;;;;16.75;16.00;;;;;33.38;33.91;99001.28;5061607;28;8862;-78
2022/06/30 07:28:15;;;;;;;;;16.50;16.50;;;;;33.65;33.57;99001.25;5089552;28;8859;-75
2022/06/30 07:31:04;;;;;;;;;21.75;19.00;;;;;33.74;33.76;99003.84;5106392;28;8851;-75
2022/06/30 07:33:33;;;;;;;;;20.00;20.00;;;;;33.54;34.16;99000.50;5093823;28;8970;-75
2022/06/30 07:36:02;;;;;;;;;19.00;18.50;;;;;33.71;33.78;98998.75;5109572;28;8845;-76
2022/06/30 07:38:31;;;;;;;;;16.75;16.75;;;;;33.88;33.63;99001.53;5109899;28;8936;-76
2022/06/30 07:41:02;;;;;;;;;21.50;21.25;;;;;34.08;33.59;99004.78;5109670;28;8933;-76
2022/06/30 07:43:30;;;;;;;;;20.25;20.25;;;;;34.06;33.26;99002.22;5108791;28;8841;-74
2022/06/30 07:46:00;;;;;;;;;19.75;19.75;;;;;34.24;33.35;98996.72;5110362;28;8829;-77
2022/06/30 07:48:29;;;;;;;;;18.25;17.25;;;;;34.40;33.22;98998.59;5108678;28;8853;-75
2022/06/30 07:50:57;;;;;;;;;19.75;19.00;;;;;34.22;32.85;98995.19;5108808;28;8879;-75
2022/06/30 07:53:26;;;;;;;;;19.75;19.50;;;;;34.27;33.07;99006.38;5109100;28;8826;-79
2022/06/30 07:55:55;;;;;;;;;22.25;21.25;;;;;34.14;33.58;99007.69;5096717;28;8883;-80
2022/06/30 07:58:25;;;;;;;;;19.25;19.25;;;;;34.38;33.36;98997.94;5054507;28;8855;-81
2022/06/30 08:00:54;;;;;;;;;17.25;15.75;;;;;34.36;33.19;98998.09;5102085;28;8845;-81
2022/06/30 08:03:22;;;;;;;;;18.75;18.25;;;;;34.61;33.11;99008.09;5107310;27;8968;-84
2022/06/30 08:05:51;;;;;;;;;20.25;20.25;;;;;34.07;34.36;99006.63;5100896;28;8849;-79
2022/06/30 08:08:20;;;;;;;;;21.50;19.50;;;;;33.44;34.96;99001.63;5088647;28;8882;-80
2022/06/30 08:10:49;;;;;;;;;22.25;22.25;;;;;33.32;35.12;99004.59;5082696;28;8873;-78
2022/06/30 08:13:18;;;;;;;;;18.00;18.00;;;;;33.59;34.62;99003.56;5091787;28;8849;-81
2022/06/30 08:15:48;;;;;;;;;18.00;17.25;;;;;33.19;35.10;99006.88;5081265;28;8838;-79
2022/06/30 08:18:17;;;;;;;;;22.50;22.25;;;;;33.33;35.17;99006.31;5099997;28;8991;-78
2022/06/30 08:20:46;;;;;;;;;21.25;21.00;;;;;33.62;34.75;99013.22;5040675;28;8839;-80
2022/06/30 08:23:15;;;;;;;;;30.50;28.50;;;;;33.44;35.33;99009.72;5089168;28;8923;-81
2022/06/30 08:25:43;;;;;;;;;18.00;18.00;;;;;32.66;35.92;99013.22;5087679;28;8856;-79
2022/06/30 08:28:12;;;;;;;;;21.25;20.50;;;;;32.39;36.71;99012.28;5089460;28;8856;-82
2022/06/30 08:30:50;;;;;;;;;22.50;22.50;;;;;32.49;36.67;99010.31;5088620;28;8865;-81
2022/06/30 08:36:19;;;;;;;;;23.25;22.25;;;;;32.62;35.92;99015.38;5102791;28;8940;-79
2022/06/30 08:42:08;;;;;;;;;22.50;20.75;;;;;32.93;35.56;99010.41;5104037;28;8828;-78
2022/06/30 08:48:55;;;;;;;;;20.25;18.25;;;;;32.49;35.95;99018.44;5072191;28;8890;-82
2022/06/30 09:00:29;;;;;;;;;20.50;19.75;;;;;31.94;37.16;99026.59;5098024;28;8941;-79
2022/06/30 09:02:59;;;;;;;;;21.75;21.00;;;;;31.79;37.56;99032.47;5109152;28;8909;-78
2022/06/30 09:05:29;;;;;;;;;24.00;24.00;;;;;31.48;37.65;99034.59;5087588;28;8867;-68
2022/06/30 09:07:58;;;;;;;;;21.25;21.25;;;;;31.50;37.93;99029.06;5088053;28;8827;-69
2022/06/30 09:10:48;;;;;;;;;23.50;22.50;;;;;31.89;37.06;99028.88;5093986;28;8821;-70
2022/06/30 09:13:18;;;;;;;;;21.75;21.75;;;;;32.07;37.27;99029.81;5087095;28;8960;-68
2022/06/30 09:15:47;;;;;;;;;24.50;24.50;;;;;32.29;37.14;99033.94;5086809;28;8868;-66
2022/06/30 09:18:22;;;;;;;;;20.50;18.75;;;;;32.22;37.62;99040.94;5097749;28;8849;-69
2022/06/30 09:20:53;;;;;;;;;24.25;23.25;;;;;31.71;38.59;99047.72;5072758;28;8837;-67
2022/06/30 09:23:28;;;;;;;;;22.50;21.00;;;;;31.94;38.22;99040.06;5107766;28;8822;-72
2022/06/30 09:25:58;;;;;;;;;21.50;20.75;;;;;32.26;37.81;99036.94;5108030;28;8837;-73
2022/06/30 09:28:41;;;;;;;;;25.00;23.25;;;;;32.12;38.05;99029.34;5088888;28;8865;-70
2022/06/30 09:31:35;;;;;;;;;25.75;25.50;;;;;32.32;37.35;99035.47;5106731;28;8888;-68
2022/06/30 09:34:16;;;;;;;;;20.00;20.00;;;;;32.78;36.60;99031.72;5107660;28;8849;-70
2022/06/30 09:36:47;;;;;;;;;23.50;22.75;;;;;32.96;36.34;99034.38;5107969;28;8856;-70
2022/06/30 09:39:19;;;;;;;;;19.00;18.50;;;;;32.79;36.66;99035.28;5107203;28;9025;-70
2022/06/30 09:41:50;;;;;;;;;23.25;22.50;;;;;33.10;36.75;99026.72;5088423;28;8958;-70
2022/06/30 09:44:21;;;;;;;;;22.50;22.00;;;;;33.39;36.03;99031.84;5107407;28;8829;-74
2022/06/30 09:46:56;;;;;;;;;18.25;18.25;;;;;33.46;35.43;99021.22;5107532;28;8936;-70
2022/06/30 09:49:30;;;;;;;;;25.75;25.75;;;;;33.74;35.50;99030.88;5088232;28;8861;-69
2022/06/30 09:52:00;;;;;;;;;20.50;19.00;;;;;33.16;36.00;99035.09;5107599;28;8861;-71
2022/06/30 09:54:32;;;;;;;;;23.50;21.50;;;;;32.27;37.63;99035.06;5105289;28;8845;-70
2022/06/30 09:57:02;;;;;;;;;21.25;21.25;;;;;32.16;37.45;99031.59;5090128;28;8864;-71
2022/06/30 09:59:32;;;;;;;;;18.25;18.25;;;;;32.35;37.21;99030.63;5086868;28;8844;-68
2022/06/30 10:02:00;;;;;;;;;21.25;20.50;;;;;32.06;36.95;99025.41;5086910;28;8934;-72
2022/06/30 10:04:29;;;;;;;;;19.50;19.50;;;;;31.97;37.22;99021.75;5087159;28;8852;-68
2022/06/30 10:06:59;;;;;;;;;23.25;21.75;;;;;32.16;36.72;99019.97;5087456;28;8940;-71
2022/06/30 10:09:42;;;;;;;;;22.25;22.25;;;;;32.55;36.87;99009.72;5092309;28;8852;-72
2022/06/30 10:12:26;;;;;;;;;21.50;20.50;;;;;32.29;37.03;99011.47;5087383;28;8840;-70
2022/06/30 10:14:55;;;;;;;;;20.50;19.25;;;;;32.60;36.73;99012.81;5087071;28;8891;-68
2022/06/30 10:17:27;;;;;;;;;19.25;19.25;;;;;32.88;36.29;98999.22;5088147;28;8816;-70
2022/06/30 10:19:56;;;;;;;;;21.25;20.75;;;;;33.27;35.81;99006.97;5086718;28;9873;-68
2022/06/30 10:22:29;;;;;;;;;21.50;20.00;;;;;33.60;34.94;98997.13;5088848;28;8871;-70
2022/06/30 10:24:59;;;;;;;;;22.00;18.75;;;;;33.94;34.10;98998.16;5091780;28;8967;-70
2022/06/30 10:27:28;;;;;;;;;20.50;19.50;;;;;34.22;34.05;99006.00;5111682;28;8849;-76
2022/06/30 10:30:00;;;;;;;;;21.33;19.00;;;;;34.48;33.25;99009.47;5110497;28;8837;-78
2022/06/30 10:32:42;;;;;;;;;23.50;23.00;;;;;34.66;32.99;99003.03;5111768;28;9606;-75
2022/06/30 10:35:21;;;;;;;;;35.50;31.50;;;;;34.93;33.20;99002.69;5111664;28;8834;-79
2022/06/30 10:37:58;;;;;;;;;22.75;22.25;;;;;35.20;31.76;99007.94;5091253;28;8874;-76
2022/06/30 10:40:45;;;;;;;;;20.50;20.50;;;;;34.50;32.36;99010.13;5106353;28;8873;-77
2022/06/30 10:43:16;;;;;;;;;24.25;18.75;;;;;34.40;32.30;99000.47;5090168;28;8840;-76
2022/06/30 10:46:02;;;;;;;;;22.50;22.25;;;;;34.33;32.18;99008.41;5110497;28;8864;-76
2022/06/30 10:48:53;;;;;;;;;17.75;17.50;;;;;34.66;32.04;99000.31;5110139;28;8864;-76
2022/06/30 10:51:22;;;;;;;;;19.75;18.25;;;;;34.95;32.35;98995.28;5111795;28;8837;-77
2022/06/30 10:53:55;;;;;;;;;17.50;16.50;;;;;35.25;31.47;98995.56;5109679;28;8909;-77
2022/06/30 10:56:26;;;;;;;;;22.50;21.00;;;;;35.38;31.35;98991.47;5109759;28;8975;-77
2022/06/30 10:59:11;;;;;;;;;22.00;21.25;;;;;35.40;31.73;98986.72;5106658;28;9702;-78
2022/06/30 11:01:40;;;;;;;;;24.00;23.00;;;;;34.91;32.14;98993.88;5105760;28;10009;-77
2022/06/30 11:04:12;;;;;;;;;23.75;23.25;;;;;34.83;32.35;98990.38;5090725;28;8863;-75
2022/06/30 11:07:01;;;;;;;;;23.25;22.00;;;;;34.76;31.78;98984.75;5090586;28;8923;-77
2022/06/30 11:10:07;;;;;;;;;20.50;20.50;;;;;35.32;31.97;98979.47;5090052;28;8843;-76
2022/06/30 11:12:56;;;;;;;;;20.25;19.75;;;;;35.98;30.75;98990.06;5104491;28;8926;-76
2022/06/30 11:15:54;;;;;;;;;23.75;22.25;;;;;35.56;30.90;98983.09;5109401;28;8929;-78
2022/06/30 11:18:24;;;;;;;;;24.25;22.25;;;;;35.69;31.33;98976.13;5095364;28;8844;-77
2022/06/30 11:20:54;;;;;;;;;23.50;21.25;;;;;35.93;30.82;98977.00;5088727;28;8843;-77
2022/06/30 11:23:24;;;;;;;;;21.75;20.75;;;;;35.57;30.51;98974.78;5084680;28;8867;-76
2022/06/30 11:28:44;;;;;;;;;19.25;19.25;;;;;35.39;31.22;98976.88;5092602;28;8887;-75
2022/06/30 11:31:27;;;;;;;;;21.50;20.50;;;;;35.70;30.62;98961.53;5109470;28;8987;-76
2022/06/30 11:33:58;;;;;;;;;22.50;20.75;;;;;35.78;30.43;98966.06;5089039;28;9597;-76
2022/06/30 11:36:26;;;;;;;;;19.75;19.75;;;;;35.59;30.89;98961.88;5101154;28;8948;-76
2022/06/30 11:38:57;;;;;;;;;25.25;24.50;;;;;35.78;30.51;98963.34;5087673;28;8890;-78
2022/06/30 11:44:16;;;;;;;;;22.25;21.25;;;;;35.58;29.96;98960.22;5108704;28;8946;-79
2022/06/30 11:47:04;;;;;;;;;19.25;18.25;;;;;36.01;29.58;98959.84;5099039;28;8840;-76
2022/06/30 11:49:41;;;;;;;;;21.50;21.00;;;;;36.10;28.86;98966.91;5089787;28;8966;-76
2022/06/30 11:52:11;;;;;;;;;18.25;18.25;;;;;36.62;28.20;98952.63;5103987;28;8837;-79
2022/06/30 11:54:43;;;;;;;;;18.75;17.75;;;;;37.08;28.13;98960.69;5089320;28;8851;-79
2022/06/30 11:57:11;;;;;;;;;18.25;18.25;;;;;37.72;27.05;98950.31;5100881;28;8848;-77
2022/06/30 11:59:49;;;;;;;;;23.00;22.25;;;;;37.94;26.96;98954.75;5108727;28;8872;-76
2022/06/30 12:02:17;;;;;;;;;28.50;26.75;;;;;38.28;27.37;98947.81;5108795;28;8833;-75
2022/06/30 12:04:52;;;;;;;;;22.75;22.75;;;;;37.96;26.51;98952.69;5109256;28;8876;-76
2022/06/30 12:07:21;;;;;;;;;22.00;22.00;;;;;38.34;26.27;98948.88;5109067;28;8840;-76
2022/06/30 12:09:51;;;;;;;;;19.25;19.25;;;;;37.78;26.68;98949.53;5056436;28;8853;-76
2022/06/30 12:12:23;;;;;;;;;22.25;20.25;;;;;37.55;27.28;98942.31;5109590;28;8857;-78
2022/06/30 12:14:55;;;;;;;;;22.50;21.50;;;;;38.14;26.59;98946.00;5091399;28;8934;-77
2022/06/30 12:17:25;;;;;;;;;19.50;19.50;;;;;38.87;25.93;98943.94;5107677;28;9637;-80
2022/06/30 12:19:54;;;;;;;;;23.00;21.25;;;;;39.53;25.17;98943.53;5073389;28;8869;-78
2022/06/30 12:22:22;;;;;;;;;22.75;21.00;;;;;39.85;24.13;98943.00;5107603;28;8856;-83